sensor_id;sensor_type;location;lat;lon;timestamp;pressure;altitude;pressure_sealevel;temperature;humidity
13719;BME280;6931;51.100;17.068;2022-09-01T00:01:47;100623.31;;;17.93;70.28
13719;BME280;6931;51.100;17.068;2022-09-01T00:04:18;100628.22;;;17.89;70.65
13719;BME280;6931;51.100;17.068;2022-09-01T00:06:46;100633.34;;;17.94;70.71
13719;BME280;6931;51.100;17.068;2022-09-01T00:09:15;100619.16;;;17.98;70.59
13719;BME280;6931;51.100;17.068;2022-09-01T00:11:45;100626.09;;;17.77;71.92
13719;BME280;6931;51.100;17.068;2022-09-01T00:14:18;100624.84;;;17.78;71.78
13719;BME280;6931;51.100;17.068;2022-09-01T00:17:00;100619.13;;;17.82;71.29
13719;BME280;6931;51.100;17.068;2022-09-01T00:19:27;100622.53;;;17.73;71.84
13719;BME280;6931;51.100;17.068;2022-09-01T00:21:55;100631.59;;;17.65;71.85
13719;BME280;6931;51.100;17.068;2022-09-01T00:24:22;100632.97;;;17.76;71.27
13719;BME280;6931;51.100;17.068;2022-09-01T00:26:52;100637.63;;;17.83;71.33
13719;BME280;6931;51.100;17.068;2022-09-01T00:29:19;100624.00;;;17.81;71.49
13719;BME280;6931;51.100;17.068;2022-09-01T00:31:46;100633.56;;;17.68;71.47
13719;BME280;6931;51.100;17.068;2022-09-01T00:34:14;100626.69;;;17.69;71.52
13719;BME280;6931;51.100;17.068;2022-09-01T00:36:42;100633.41;;;17.75;71.30
13719;BME280;6931;51.100;17.068;2022-09-01T00:39:09;100620.84;;;17.60;71.03
13719;BME280;6931;51.100;17.068;2022-09-01T00:41:39;100630.06;;;17.01;72.51
13719;BME280;6931;51.100;17.068;2022-09-01T00:44:11;100624.84;;;16.80;73.71
13719;BME280;6931;51.100;17.068;2022-09-01T00:46:42;100623.03;;;16.70;73.87
13719;BME280;6931;51.100;17.068;2022-09-01T00:49:29;100618.19;;;16.71;73.58
13719;BME280;6931;51.100;17.068;2022-09-01T00:52:08;100625.88;;;16.90;73.63
13719;BME280;6931;51.100;17.068;2022-09-01T00:54:39;100617.06;;;16.88;73.83
13719;BME280;6931;51.100;17.068;2022-09-01T00:57:07;100615.84;;;16.89;73.25
13719;BME280;6931;51.100;17.068;2022-09-01T00:59:38;100619.78;;;16.72;73.90
13719;BME280;6931;51.100;17.068;2022-09-01T01:02:08;100616.63;;;16.43;75.06
13719;BME280;6931;51.100;17.068;2022-09-01T01:04:37;100612.53;;;16.51;74.98
13719;BME280;6931;51.100;17.068;2022-09-01T01:07:04;100611.84;;;16.67;74.69
13719;BME280;6931;51.100;17.068;2022-09-01T01:09:33;100603.34;;;16.47;74.89
13719;BME280;6931;51.100;17.068;2022-09-01T01:12:03;100613.38;;;16.48;76.12
13719;BME280;6931;51.100;17.068;2022-09-01T01:14:30;100603.56;;;16.79;75.16
13719;BME280;6931;51.100;17.068;2022-09-01T01:16:59;100611.03;;;16.66;75.06
13719;BME280;6931;51.100;17.068;2022-09-01T01:22:30;100609.16;;;16.60;75.26
13719;BME280;6931;51.100;17.068;2022-09-01T01:25:18;100610.59;;;16.68;74.20
13719;BME280;6931;51.100;17.068;2022-09-01T01:27:48;100609.53;;;16.62;75.28
13719;BME280;6931;51.100;17.068;2022-09-01T01:30:15;100609.06;;;16.86;74.57
13719;BME280;6931;51.100;17.068;2022-09-01T01:32:44;100612.41;;;16.78;74.42
13719;BME280;6931;51.100;17.068;2022-09-01T01:35:16;100608.06;;;16.96;74.29
13719;BME280;6931;51.100;17.068;2022-09-01T01:37:46;100607.75;;;16.91;74.25
13719;BME280;6931;51.100;17.068;2022-09-01T01:40:17;100610.91;;;16.73;74.88
13719;BME280;6931;51.100;17.068;2022-09-01T01:42:47;100613.81;;;16.43;76.05
13719;BME280;6931;51.100;17.068;2022-09-01T01:45:17;100620.22;;;16.47;76.04
13719;BME280;6931;51.100;17.068;2022-09-01T01:47:47;100610.84;;;16.54;75.89
13719;BME280;6931;51.100;17.068;2022-09-01T01:50:27;100606.78;;;16.58;75.29
13719;BME280;6931;51.100;17.068;2022-09-01T01:53:04;100602.28;;;16.61;75.45
13719;BME280;6931;51.100;17.068;2022-09-01T01:55:38;100595.69;;;16.71;75.09
13719;BME280;6931;51.100;17.068;2022-09-01T01:58:05;100595.78;;;17.06;74.66
13719;BME280;6931;51.100;17.068;2022-09-01T02:00:37;100609.78;;;17.10;75.78
13719;BME280;6931;51.100;17.068;2022-09-01T02:03:04;100601.56;;;17.19;75.35
13719;BME280;6931;51.100;17.068;2022-09-01T02:05:35;100593.75;;;17.27;75.12
13719;BME280;6931;51.100;17.068;2022-09-01T02:08:06;100600.47;;;17.33;74.54
13719;BME280;6931;51.100;17.068;2022-09-01T02:10:37;100592.41;;;17.35;74.34
13719;BME280;6931;51.100;17.068;2022-09-01T02:13:05;100588.56;;;17.25;74.45
13719;BME280;6931;51.100;17.068;2022-09-01T02:15:39;100596.38;;;17.17;74.33
13719;BME280;6931;51.100;17.068;2022-09-01T02:18:15;100602.34;;;17.19;73.93
13719;BME280;6931;51.100;17.068;2022-09-01T02:20:45;100594.69;;;17.00;73.63
13719;BME280;6931;51.100;17.068;2022-09-01T02:23:13;100602.53;;;16.70;74.14
13719;BME280;6931;51.100;17.068;2022-09-01T02:25:43;100596.38;;;16.55;74.99
13719;BME280;6931;51.100;17.068;2022-09-01T02:28:33;100598.38;;;16.55;74.58
13719;BME280;6931;51.100;17.068;2022-09-01T02:31:03;100593.91;;;16.57;73.71
13719;BME280;6931;51.100;17.068;2022-09-01T02:33:31;100593.97;;;16.54;73.92
13719;BME280;6931;51.100;17.068;2022-09-01T02:36:00;100596.84;;;16.73;75.57
13719;BME280;6931;51.100;17.068;2022-09-01T02:38:28;100597.03;;;16.63;74.52
13719;BME280;6931;51.100;17.068;2022-09-01T02:40:56;100599.91;;;16.59;74.39
13719;BME280;6931;51.100;17.068;2022-09-01T02:43:25;100592.13;;;16.44;74.54
13719;BME280;6931;51.100;17.068;2022-09-01T02:45:56;100603.59;;;16.56;74.66
13719;BME280;6931;51.100;17.068;2022-09-01T02:48:31;100594.03;;;16.50;74.19
13719;BME280;6931;51.100;17.068;2022-09-01T02:51:23;100605.34;;;16.47;74.23
13719;BME280;6931;51.100;17.068;2022-09-01T02:53:52;100597.97;;;16.56;74.36
13719;BME280;6931;51.100;17.068;2022-09-01T02:56:24;100604.56;;;16.46;74.91
13719;BME280;6931;51.100;17.068;2022-09-01T02:58:53;100608.91;;;16.51;75.16
13719;BME280;6931;51.100;17.068;2022-09-01T03:01:24;100598.97;;;16.43;74.64
13719;BME280;6931;51.100;17.068;2022-09-01T03:03:54;100602.84;;;16.52;74.51
13719;BME280;6931;51.100;17.068;2022-09-01T03:06:22;100609.44;;;16.42;74.82
13719;BME280;6931;51.100;17.068;2022-09-01T03:08:53;100603.72;;;16.23;74.81
13719;BME280;6931;51.100;17.068;2022-09-01T03:11:21;100601.41;;;16.18;75.45
13719;BME280;6931;51.100;17.068;2022-09-01T03:13:50;100601.97;;;16.32;74.47
13719;BME280;6931;51.100;17.068;2022-09-01T03:16:17;100597.03;;;16.40;74.80
13719;BME280;6931;51.100;17.068;2022-09-01T03:18:44;100596.13;;;16.46;74.38
13719;BME280;6931;51.100;17.068;2022-09-01T03:21:11;100594.03;;;16.73;74.29
13719;BME280;6931;51.100;17.068;2022-09-01T03:23:44;100593.72;;;16.68;75.47
13719;BME280;6931;51.100;17.068;2022-09-01T03:26:13;100597.44;;;16.38;75.44
13719;BME280;6931;51.100;17.068;2022-09-01T03:28:39;100595.97;;;16.30;74.92
13719;BME280;6931;51.100;17.068;2022-09-01T03:31:06;100615.09;;;16.39;74.94
13719;BME280;6931;51.100;17.068;2022-09-01T03:33:34;100605.38;;;16.43;74.67
13719;BME280;6931;51.100;17.068;2022-09-01T03:36:03;100601.09;;;16.35;73.97
13719;BME280;6931;51.100;17.068;2022-09-01T03:38:40;100601.91;;;16.36;74.40
13719;BME280;6931;51.100;17.068;2022-09-01T03:41:09;100607.41;;;16.20;74.59
13719;BME280;6931;51.100;17.068;2022-09-01T03:43:39;100605.81;;;16.19;75.24
13719;BME280;6931;51.100;17.068;2022-09-01T03:46:13;100611.59;;;16.08;75.40
13719;BME280;6931;51.100;17.068;2022-09-01T03:48:54;100599.44;;;16.15;75.14
13719;BME280;6931;51.100;17.068;2022-09-01T03:51:22;100606.47;;;16.26;74.74
13719;BME280;6931;51.100;17.068;2022-09-01T03:53:51;100599.16;;;16.32;74.40
13719;BME280;6931;51.100;17.068;2022-09-01T03:56:26;100609.84;;;16.18;75.11
13719;BME280;6931;51.100;17.068;2022-09-01T03:58:55;100611.13;;;16.13;75.48
13719;BME280;6931;51.100;17.068;2022-09-01T04:01:27;100598.16;;;16.19;75.07
13719;BME280;6931;51.100;17.068;2022-09-01T04:03:54;100612.97;;;16.23;74.92
13719;BME280;6931;51.100;17.068;2022-09-01T04:06:21;100615.63;;;16.07;74.90
13719;BME280;6931;51.100;17.068;2022-09-01T04:08:50;100607.59;;;16.32;75.11
13719;BME280;6931;51.100;17.068;2022-09-01T04:11:22;100610.28;;;16.39;74.95
13719;BME280;6931;51.100;17.068;2022-09-01T04:13:50;100612.97;;;16.23;75.28
13719;BME280;6931;51.100;17.068;2022-09-01T04:16:25;100608.84;;;16.28;75.69
13719;BME280;6931;51.100;17.068;2022-09-01T04:19:13;100609.78;;;16.21;74.61
13719;BME280;6931;51.100;17.068;2022-09-01T04:21:55;100619.28;;;16.31;74.79
13719;BME280;6931;51.100;17.068;2022-09-01T04:24:24;100609.53;;;16.35;74.81
13719;BME280;6931;51.100;17.068;2022-09-01T04:26:55;100605.03;;;16.41;74.45
13719;BME280;6931;51.100;17.068;2022-09-01T04:29:24;100603.19;;;16.31;74.79
13719;BME280;6931;51.100;17.068;2022-09-01T04:32:00;100609.53;;;16.35;75.00
13719;BME280;6931;51.100;17.068;2022-09-01T04:34:29;100610.22;;;16.43;74.77
13719;BME280;6931;51.100;17.068;2022-09-01T04:37:08;100608.78;;;16.31;74.89
13719;BME280;6931;51.100;17.068;2022-09-01T04:39:35;100604.78;;;16.32;74.86
13719;BME280;6931;51.100;17.068;2022-09-01T04:42:04;100605.72;;;16.49;74.80
13719;BME280;6931;51.100;17.068;2022-09-01T04:44:32;100603.84;;;16.39;75.58
13719;BME280;6931;51.100;17.068;2022-09-01T04:46:58;100608.69;;;16.38;75.00
13719;BME280;6931;51.100;17.068;2022-09-01T04:49:25;100609.59;;;16.32;75.81
13719;BME280;6931;51.100;17.068;2022-09-01T04:51:52;100610.56;;;16.48;75.74
13719;BME280;6931;51.100;17.068;2022-09-01T04:54:21;100610.22;;;16.43;75.90
13719;BME280;6931;51.100;17.068;2022-09-01T04:56:49;100615.59;;;16.34;75.78
13719;BME280;6931;51.100;17.068;2022-09-01T04:59:19;100614.84;;;16.56;75.16
13719;BME280;6931;51.100;17.068;2022-09-01T05:01:47;100600.28;;;16.61;74.75
13719;BME280;6931;51.100;17.068;2022-09-01T05:04:18;100622.41;;;16.59;74.90
13719;BME280;6931;51.100;17.068;2022-09-01T05:06:48;100623.25;;;16.79;74.26
13719;BME280;6931;51.100;17.068;2022-09-01T05:09:16;100622.28;;;16.66;75.24
13719;BME280;6931;51.100;17.068;2022-09-01T05:11:44;100617.03;;;16.68;74.68
13719;BME280;6931;51.100;17.068;2022-09-01T05:14:11;100613.53;;;16.61;75.17
13719;BME280;6931;51.100;17.068;2022-09-01T05:16:39;100611.56;;;16.81;73.93
13719;BME280;6931;51.100;17.068;2022-09-01T05:19:10;100616.78;;;16.82;74.03
13719;BME280;6931;51.100;17.068;2022-09-01T05:21:41;100623.47;;;16.88;73.69
13719;BME280;6931;51.100;17.068;2022-09-01T05:24:13;100619.28;;;16.77;74.31
13719;BME280;6931;51.100;17.068;2022-09-01T05:26:41;100612.06;;;16.76;74.09
13719;BME280;6931;51.100;17.068;2022-09-01T05:29:09;100620.34;;;16.63;75.20
13719;BME280;6931;51.100;17.068;2022-09-01T05:31:41;100613.59;;;16.57;74.81
13719;BME280;6931;51.100;17.068;2022-09-01T05:34:08;100622.09;;;16.54;75.22
13719;BME280;6931;51.100;17.068;2022-09-01T05:36:43;100615.72;;;16.73;74.58
13719;BME280;6931;51.100;17.068;2022-09-01T05:39:11;100615.69;;;16.53;74.87
13719;BME280;6931;51.100;17.068;2022-09-01T05:41:39;100551.22;;;16.16;74.33
13719;BME280;6931;51.100;17.068;2022-09-01T05:44:06;100618.47;;;16.76;74.70
13719;BME280;6931;51.100;17.068;2022-09-01T05:46:36;100624.59;;;16.71;74.34
13719;BME280;6931;51.100;17.068;2022-09-01T05:49:04;100630.34;;;16.64;74.44
13719;BME280;6931;51.100;17.068;2022-09-01T05:51:32;100628.09;;;16.56;75.17
13719;BME280;6931;51.100;17.068;2022-09-01T05:54:12;100638.91;;;16.80;73.62
13719;BME280;6931;51.100;17.068;2022-09-01T05:56:41;100634.66;;;16.72;73.66
13719;BME280;6931;51.100;17.068;2022-09-01T05:59:11;100629.78;;;16.73;73.54
13719;BME280;6931;51.100;17.068;2022-09-01T06:01:53;100640.47;;;16.62;73.54
13719;BME280;6931;51.100;17.068;2022-09-01T06:04:22;100643.94;;;16.69;73.62
13719;BME280;6931;51.100;17.068;2022-09-01T06:06:52;100644.41;;;16.64;73.22
13719;BME280;6931;51.100;17.068;2022-09-01T06:09:44;100646.63;;;16.76;73.25
13719;BME280;6931;51.100;17.068;2022-09-01T06:12:12;100635.28;;;16.80;73.43
13719;BME280;6931;51.100;17.068;2022-09-01T06:14:51;100638.22;;;16.73;73.10
13719;BME280;6931;51.100;17.068;2022-09-01T06:17:20;100641.78;;;16.77;72.88
13719;BME280;6931;51.100;17.068;2022-09-01T06:19:52;100634.22;;;16.93;72.51
13719;BME280;6931;51.100;17.068;2022-09-01T06:22:21;100637.47;;;16.92;72.76
13719;BME280;6931;51.100;17.068;2022-09-01T06:24:49;100637.47;;;16.92;72.50
13719;BME280;6931;51.100;17.068;2022-09-01T06:27:26;100636.66;;;16.95;72.38
13719;BME280;6931;51.100;17.068;2022-09-01T06:29:53;100634.47;;;17.02;72.74
13719;BME280;6931;51.100;17.068;2022-09-01T06:32:20;100640.53;;;17.01;72.29
13719;BME280;6931;51.100;17.068;2022-09-01T06:34:47;100646.16;;;17.01;72.06
13719;BME280;6931;51.100;17.068;2022-09-01T06:37:16;100649.25;;;16.87;72.09
13719;BME280;6931;51.100;17.068;2022-09-01T06:39:48;100650.78;;;17.11;71.87
13719;BME280;6931;51.100;17.068;2022-09-01T06:42:15;100651.75;;;17.24;71.52
13719;BME280;6931;51.100;17.068;2022-09-01T06:44:42;100654.97;;;17.42;71.06
13719;BME280;6931;51.100;17.068;2022-09-01T06:47:09;100650.97;;;17.43;70.10
13719;BME280;6931;51.100;17.068;2022-09-01T06:49:36;100654.00;;;17.33;69.94
13719;BME280;6931;51.100;17.068;2022-09-01T06:52:05;100668.75;;;17.60;69.90
13719;BME280;6931;51.100;17.068;2022-09-01T06:54:32;100667.84;;;17.63;69.43
13719;BME280;6931;51.100;17.068;2022-09-01T06:57:02;100665.78;;;17.67;69.76
13719;BME280;6931;51.100;17.068;2022-09-01T06:59:49;100655.16;;;17.74;69.07
13719;BME280;6931;51.100;17.068;2022-09-01T07:02:18;100656.94;;;17.84;69.30
13719;BME280;6931;51.100;17.068;2022-09-01T07:04:49;100660.16;;;18.02;68.68
13719;BME280;6931;51.100;17.068;2022-09-01T07:07:16;100662.91;;;18.06;68.02
13719;BME280;6931;51.100;17.068;2022-09-01T07:10:04;100663.16;;;18.27;67.94
13719;BME280;6931;51.100;17.068;2022-09-01T07:12:52;100663.41;;;18.53;67.87
13719;BME280;6931;51.100;17.068;2022-09-01T07:15:41;100662.59;;;18.52;67.60
13719;BME280;6931;51.100;17.068;2022-09-01T07:18:29;100667.41;;;18.36;67.05
13719;BME280;6931;51.100;17.068;2022-09-01T07:20:56;100664.75;;;18.12;67.00
13719;BME280;6931;51.100;17.068;2022-09-01T07:23:44;100671.69;;;18.08;66.60
13719;BME280;6931;51.100;17.068;2022-09-01T07:26:32;100666.25;;;18.17;67.76
13719;BME280;6931;51.100;17.068;2022-09-01T07:29:02;100661.59;;;18.26;66.80
13719;BME280;6931;51.100;17.068;2022-09-01T07:31:37;100672.63;;;18.37;65.53
13719;BME280;6931;51.100;17.068;2022-09-01T07:34:26;100666.25;;;18.33;65.17
13719;BME280;6931;51.100;17.068;2022-09-01T07:37:13;100664.63;;;18.52;64.31
13719;BME280;6931;51.100;17.068;2022-09-01T07:40:00;100674.31;;;18.67;63.65
13719;BME280;6931;51.100;17.068;2022-09-01T07:42:52;100669.19;;;18.94;63.33
13719;BME280;6931;51.100;17.068;2022-09-01T07:45:36;100680.28;;;19.01;62.68
13719;BME280;6931;51.100;17.068;2022-09-01T07:48:12;100681.56;;;19.12;62.46
13719;BME280;6931;51.100;17.068;2022-09-01T07:51:00;100685.75;;;18.92;62.17
13719;BME280;6931;51.100;17.068;2022-09-01T07:53:47;100685.84;;;19.04;62.13
13719;BME280;6931;51.100;17.068;2022-09-01T07:56:18;100685.09;;;19.16;62.10
13719;BME280;6931;51.100;17.068;2022-09-01T07:58:47;100688.31;;;18.86;61.25
13719;BME280;6931;51.100;17.068;2022-09-01T08:01:17;100687.59;;;18.98;60.97
13719;BME280;6931;51.100;17.068;2022-09-01T08:03:47;100680.03;;;19.24;60.75
13719;BME280;6931;51.100;17.068;2022-09-01T08:06:16;100683.31;;;19.38;60.82
13719;BME280;6931;51.100;17.068;2022-09-01T08:08:48;100675.84;;;19.45;60.75
13719;BME280;6931;51.100;17.068;2022-09-01T08:11:22;100685.13;;;19.29;60.81
13719;BME280;6931;51.100;17.068;2022-09-01T08:14:10;100688.41;;;19.27;59.34
13719;BME280;6931;51.100;17.068;2022-09-01T08:16:37;100681.19;;;19.26;59.26
13719;BME280;6931;51.100;17.068;2022-09-01T08:19:16;100683.59;;;19.57;59.39
13719;BME280;6931;51.100;17.068;2022-09-01T08:21:43;100686.84;;;19.55;59.47
13719;BME280;6931;51.100;17.068;2022-09-01T08:24:10;100686.13;;;19.80;58.41
13719;BME280;6931;51.100;17.068;2022-09-01T08:26:37;100677.53;;;19.83;58.04
13719;BME280;6931;51.100;17.068;2022-09-01T08:29:03;100684.78;;;19.97;58.76
13719;BME280;6931;51.100;17.068;2022-09-01T08:31:30;100689.78;;;19.93;56.64
13719;BME280;6931;51.100;17.068;2022-09-01T08:33:57;100694.28;;;19.90;56.85
13719;BME280;6931;51.100;17.068;2022-09-01T08:36:25;100698.84;;;20.13;57.61
13719;BME280;6931;51.100;17.068;2022-09-01T08:38:52;100695.22;;;20.12;55.79
13719;BME280;6931;51.100;17.068;2022-09-01T08:46:40;100689.53;;;19.87;54.21
13719;BME280;6931;51.100;17.068;2022-09-01T08:49:19;100691.38;;;20.06;55.18
13719;BME280;6931;51.100;17.068;2022-09-01T08:51:57;100687.56;;;20.38;57.21
13719;BME280;6931;51.100;17.068;2022-09-01T08:54:46;100682.59;;;20.17;54.77
13719;BME280;6931;51.100;17.068;2022-09-01T08:57:30;100697.50;;;20.17;55.31
13719;BME280;6931;51.100;17.068;2022-09-01T08:59:58;100688.34;;;20.26;54.59
13719;BME280;6931;51.100;17.068;2022-09-01T09:05:29;100700.41;;;20.14;54.13
13719;BME280;6931;51.100;17.068;2022-09-01T09:11:07;100702.19;;;19.83;54.39
13719;BME280;6931;51.100;17.068;2022-09-01T09:16:48;100693.16;;;19.88;56.82
13719;BME280;6931;51.100;17.068;2022-09-01T09:19:29;100698.78;;;19.75;55.43
13719;BME280;6931;51.100;17.068;2022-09-01T09:21:59;100688.69;;;19.62;55.08
13719;BME280;6931;51.100;17.068;2022-09-01T09:27:04;100693.50;;;19.77;54.62
13719;BME280;6931;51.100;17.068;2022-09-01T09:29:32;100680.31;;;20.12;53.58
13719;BME280;6931;51.100;17.068;2022-09-01T09:32:07;100684.50;;;20.45;52.84
13719;BME280;6931;51.100;17.068;2022-09-01T09:34:54;100689.91;;;20.52;51.82
13719;BME280;6931;51.100;17.068;2022-09-01T09:37:27;100686.66;;;20.54;50.68
13719;BME280;6931;51.100;17.068;2022-09-01T09:43:00;100680.34;;;20.96;52.30
13719;BME280;6931;51.100;17.068;2022-09-01T09:47:56;100676.47;;;21.37;50.21
13719;BME280;6931;51.100;17.068;2022-09-01T09:50:35;100683.09;;;21.21;49.69
13719;BME280;6931;51.100;17.068;2022-09-01T09:53:25;100665.81;;;20.47;49.61
13719;BME280;6931;51.100;17.068;2022-09-01T09:58:46;100674.34;;;20.22;50.96
13719;BME280;6931;51.100;17.068;2022-09-01T10:03:58;100675.75;;;20.14;53.11
13719;BME280;6931;51.100;17.068;2022-09-01T10:06:35;100672.06;;;20.42;54.09
13719;BME280;6931;51.100;17.068;2022-09-01T10:09:33;100667.38;;;20.61;53.20
13719;BME280;6931;51.100;17.068;2022-09-01T10:12:00;100661.09;;;20.91;50.96
13719;BME280;6931;51.100;17.068;2022-09-01T10:14:32;100660.06;;;20.98;49.68
13719;BME280;6931;51.100;17.068;2022-09-01T10:17:31;100675.44;;;21.09;48.48
13719;BME280;6931;51.100;17.068;2022-09-01T10:20:06;100672.09;;;21.23;48.13
13719;BME280;6931;51.100;17.068;2022-09-01T10:22:38;100660.44;;;21.21;47.88
13719;BME280;6931;51.100;17.068;2022-09-01T10:25:06;100657.16;;;21.44;48.48
13719;BME280;6931;51.100;17.068;2022-09-01T10:27:39;100657.41;;;21.37;47.54
13719;BME280;6931;51.100;17.068;2022-09-01T10:30:13;100665.72;;;20.98;47.55
13719;BME280;6931;51.100;17.068;2022-09-01T10:32:49;100658.75;;;20.77;48.74
13719;BME280;6931;51.100;17.068;2022-09-01T10:35:28;100674.53;;;20.28;49.47
13719;BME280;6931;51.100;17.068;2022-09-01T10:37:57;100670.38;;;20.20;50.17
13719;BME280;6931;51.100;17.068;2022-09-01T10:43:00;100685.91;;;19.87;50.46
13719;BME280;6931;51.100;17.068;2022-09-01T10:45:45;100671.59;;;20.31;49.64
13719;BME280;6931;51.100;17.068;2022-09-01T10:48:29;100672.69;;;20.72;48.24
13719;BME280;6931;51.100;17.068;2022-09-01T10:53:59;100657.81;;;20.93;46.55
13719;BME280;6931;51.100;17.068;2022-09-01T10:56:45;100658.56;;;21.40;47.61
13719;BME280;6931;51.100;17.068;2022-09-01T10:59:28;100661.38;;;21.61;45.98
13719;BME280;6931;51.100;17.068;2022-09-01T11:02:17;100664.81;;;21.01;44.71
13719;BME280;6931;51.100;17.068;2022-09-01T11:10:43;100669.69;;;20.41;45.63
13719;BME280;6931;51.100;17.068;2022-09-01T11:15:53;100664.31;;;20.68;42.30
13719;BME280;6931;51.100;17.068;2022-09-01T11:18:28;100669.97;;;20.68;43.08
13719;BME280;6931;51.100;17.068;2022-09-01T11:23:41;100655.97;;;21.33;44.81
13719;BME280;6931;51.100;17.068;2022-09-01T11:28:57;100664.00;;;21.34;42.61
13719;BME280;6931;51.100;17.068;2022-09-01T11:31:29;100671.00;;;20.74;43.14
13719;BME280;6931;51.100;17.068;2022-09-01T11:34:12;100664.28;;;20.81;42.87
13719;BME280;6931;51.100;17.068;2022-09-01T11:44:24;100659.00;;;21.60;41.07
13719;BME280;6931;51.100;17.068;2022-09-01T11:46:57;100656.28;;;21.56;40.99
13719;BME280;6931;51.100;17.068;2022-09-01T11:49:30;100653.34;;;21.38;40.74
13719;BME280;6931;51.100;17.068;2022-09-01T11:51:58;100653.97;;;21.86;41.95
13719;BME280;6931;51.100;17.068;2022-09-01T11:54:27;100654.13;;;22.13;41.15
13719;BME280;6931;51.100;17.068;2022-09-01T11:56:55;100656.09;;;21.73;40.10
13719;BME280;6931;51.100;17.068;2022-09-01T11:59:35;100655.31;;;22.03;40.60
13719;BME280;6931;51.100;17.068;2022-09-01T12:02:02;100655.19;;;21.54;37.72
13719;BME280;6931;51.100;17.068;2022-09-01T12:04:33;100648.47;;;21.60;38.78
13719;BME280;6931;51.100;17.068;2022-09-01T12:07:08;100654.56;;;22.11;38.89
13719;BME280;6931;51.100;17.068;2022-09-01T12:09:40;100647.56;;;22.34;38.42
13719;BME280;6931;51.100;17.068;2022-09-01T12:12:28;100641.56;;;22.23;38.25
13719;BME280;6931;51.100;17.068;2022-09-01T12:15:00;68515.09;;;-140.71;100.00
13719;BME280;6931;51.100;17.068;2022-09-01T12:17:32;100631.00;;;23.17;38.67
13719;BME280;6931;51.100;17.068;2022-09-01T12:20:35;100625.31;;;22.63;37.80
13719;BME280;6931;51.100;17.068;2022-09-01T12:23:25;100625.03;;;22.97;37.82
13719;BME280;6931;51.100;17.068;2022-09-01T12:25:54;100630.69;;;22.97;38.53
13719;BME280;6931;51.100;17.068;2022-09-01T12:28:26;100627.88;;;22.97;38.47
13719;BME280;6931;51.100;17.068;2022-09-01T12:31:02;100628.94;;;23.00;37.48
13719;BME280;6931;51.100;17.068;2022-09-01T12:33:33;100630.66;;;22.79;37.48
13719;BME280;6931;51.100;17.068;2022-09-01T12:36:29;100624.41;;;23.29;37.92
13719;BME280;6931;51.100;17.068;2022-09-01T12:41:45;100621.91;;;22.46;39.65
13719;BME280;6931;51.100;17.068;2022-09-01T12:44:28;100630.66;;;21.82;41.38
13719;BME280;6931;51.100;17.068;2022-09-01T12:47:08;100639.81;;;21.64;40.88
13719;BME280;6931;51.100;17.068;2022-09-01T12:49:44;100635.00;;;21.52;42.28
13719;BME280;6931;51.100;17.068;2022-09-01T12:52:19;100632.25;;;21.39;42.72
13719;BME280;6931;51.100;17.068;2022-09-01T12:54:53;100633.16;;;21.58;42.35
13719;BME280;6931;51.100;17.068;2022-09-01T13:00:06;100625.03;;;22.39;43.00
13719;BME280;6931;51.100;17.068;2022-09-01T13:02:40;100621.66;;;22.62;41.06
13719;BME280;6931;51.100;17.068;2022-09-01T13:05:21;100615.53;;;22.91;42.03
13719;BME280;6931;51.100;17.068;2022-09-01T13:07:59;100615.69;;;23.06;40.03
13719;BME280;6931;51.100;17.068;2022-09-01T13:10:30;100621.22;;;22.82;39.80
13719;BME280;6931;51.100;17.068;2022-09-01T13:12:58;100604.78;;;22.77;39.68
13719;BME280;6931;51.100;17.068;2022-09-01T13:15:25;100618.22;;;23.04;38.50
13719;BME280;6931;51.100;17.068;2022-09-01T13:17:51;100608.25;;;23.08;37.92
13719;BME280;6931;51.100;17.068;2022-09-01T13:20:18;100613.16;;;23.26;38.20
13719;BME280;6931;51.100;17.068;2022-09-01T13:22:45;100603.38;;;23.09;37.11
13719;BME280;6931;51.100;17.068;2022-09-01T13:25:14;100621.22;;;23.18;36.55
13719;BME280;6931;51.100;17.068;2022-09-01T13:27:43;100619.16;;;23.19;36.15
13719;BME280;6931;51.100;17.068;2022-09-01T13:30:11;100622.50;;;23.44;36.06
13719;BME280;6931;51.100;17.068;2022-09-01T13:32:39;100617.13;;;23.19;34.82
13719;BME280;6931;51.100;17.068;2022-09-01T13:35:26;100616.31;;;22.92;37.66
13719;BME280;6931;51.100;17.068;2022-09-01T13:37:57;100609.69;;;23.13;38.33
13719;BME280;6931;51.100;17.068;2022-09-01T13:40:23;100625.19;;;23.48;38.99
13719;BME280;6931;51.100;17.068;2022-09-01T13:42:52;100608.94;;;23.30;38.26
13719;BME280;6931;51.100;17.068;2022-09-01T13:45:21;100613.81;;;23.48;38.83
13719;BME280;6931;51.100;17.068;2022-09-01T13:47:51;100612.22;;;23.20;38.27
13719;BME280;6931;51.100;17.068;2022-09-01T13:50:38;100611.13;;;22.81;37.86
13719;BME280;6931;51.100;17.068;2022-09-01T13:53:24;100614.38;;;22.61;37.19
13719;BME280;6931;51.100;17.068;2022-09-01T13:55:51;100622.63;;;22.20;37.37
13719;BME280;6931;51.100;17.068;2022-09-01T13:58:18;100625.28;;;21.84;37.91
13719;BME280;6931;51.100;17.068;2022-09-01T14:00:45;100616.63;;;22.27;38.81
13719;BME280;6931;51.100;17.068;2022-09-01T14:03:16;100611.50;;;21.73;39.06
13719;BME280;6931;51.100;17.068;2022-09-01T14:05:45;100616.88;;;22.50;37.68
13719;BME280;6931;51.100;17.068;2022-09-01T14:08:17;100608.72;;;22.61;38.19
13719;BME280;6931;51.100;17.068;2022-09-01T14:10:47;100610.00;;;22.97;37.37
13719;BME280;6931;51.100;17.068;2022-09-01T14:13:17;100606.22;;;23.00;37.50
13719;BME280;6931;51.100;17.068;2022-09-01T14:15:45;100610.03;;;23.06;37.94
13719;BME280;6931;51.100;17.068;2022-09-01T14:18:13;100609.06;;;23.18;37.72
13719;BME280;6931;51.100;17.068;2022-09-01T14:20:43;100600.38;;;23.12;33.06
13719;BME280;6931;51.100;17.068;2022-09-01T14:23:11;100602.28;;;23.51;35.93